MAPA DE AEROPUERTO

INFORMACIÓN METAR y TAF

METAR FOR TNCM
ADDS - METARS form results

(1157 UTC 01 December 2020)
Data provider http://aviationweather.gov/metar/data/
 
METAR text: TNCM 011100Z 05006KT 9999 FEW020 26/19 Q1016 NOSIG
Conditions at: TNCM (ST MAARTEN JULIA, VI) observed 1100 UTC 01 December 2020
Temperature: 26.0°C (79°F)
Dewpoint: 19.0°C (66°F) [RH = 65%]
Pressure (altimeter): 30.00 inches Hg (1016.0 mb)
Winds: from the NE (50 degrees) at 7 MPH (6 knots; 3.1 m/s)
Visibility: 6 or more miles (10+ km)
Ceiling: at least 12,000 feet AGL
Clouds: few clouds at 2000 feet AGL
Weather: no significant weather observed at this time

Forecast for: TNCM (ST MAARTEN JULIA, VI)
Text: TNCM 011135Z 0112/0212 07009KT P6SM FEW018
Forecast period: 1200 UTC 01 December 2020 to 1200 UTC 02 December 2020
Forecast type: FROM: standard forecast or significant change
Winds: from the ENE (70 degrees) at 10 MPH (9 knots; 4.6 m/s)
Visibility: 6 or more miles (10+ km)
Ceiling: at least 12,000 feet AGL
Clouds: few clouds at 1800 feet AGL
Weather: no significant weather forecast for this period